This is the latest recevied weather packets stored in our database for station/object GW1599. If no packets are shown the sender has not sent any weather packets the latest 10 day(s).
| Time | Temp. | Humidity | Pressure | Rain* | Wind** | Luminosity | Snow |
|---|---|---|---|---|---|---|---|
| 1777523968 | 12.78° C | 96% | 1012.8 hPa | 0 mm | - | - | - |
| 1777522526 | 12.78° C | 96% | 1012.8 hPa | 0 mm | - | - | - |
| 1777522182 | 12.78° C | 96% | 1012.8 hPa | 0 mm | - | - | - |
| 1777521107 | 12.78° C | 96% | 1012.8 hPa | 14.99 mm | - | - | - |
| 1777518929 | 12.78° C | 96% | 1012.8 hPa | 14.99 mm | - | - | - |
| 1777517477 | 12.78° C | 95% | 1012.8 hPa | 14.99 mm | - | - | - |
| 1777515689 | 12.78° C | 94% | 1012.8 hPa | 14.99 mm | - | - | - |
| 1777515353 | 12.78° C | 94% | 1012.8 hPa | 14.99 mm | - | - | - |
| 1777514958 | 12.78° C | 94% | 1012.8 hPa | 14.99 mm | - | - | - |
| 1777509942 | 14.44° C | 92% | 1012.1 hPa | 14.99 mm | - | - | - |
| 1777509205 | 14.44° C | 92% | 1011.8 hPa | 14.99 mm | - | - | - |
| 1777508855 | 14.44° C | 92% | 1011.8 hPa | 14.99 mm | - | - | - |
| 1777500222 | 17.78° C | 93% | 1009.4 hPa | 14.99 mm | - | - | - |
| 1777498754 | 17.22° C | 93% | 1009.1 hPa | 14.99 mm | - | - | - |
| 1777498048 | 17.22° C | 93% | 1008.8 hPa | 14.48 mm | - | - | - |
| 1777497705 | 17.78° C | 92% | 1008.8 hPa | 14.48 mm | - | - | - |
| 1777496959 | 17.78° C | 92% | 1008.4 hPa | 14.48 mm | - | - | - |
| 1777495884 | 17.78° C | 93% | 1007.7 hPa | 14.48 mm | - | - | - |
| 1777495513 | 18.33° C | 93% | 1008.1 hPa | 14.48 mm | - | - | - |
| 1777494076 | 18.33° C | 93% | 1007.4 hPa | 14.48 mm | - | - | - |
| 1777488338 | 18.89° C | 91% | 1008.1 hPa | 5.84 mm | - | - | - |
| 1777485827 | 18.33° C | 90% | 1008.8 hPa | 5.59 mm | - | - | - |
| 1777483307 | 19.44° C | 90% | 1008.8 hPa | 3.81 mm | - | - | - |
| 1777482942 | 19.44° C | 90% | 1008.8 hPa | 3.81 mm | - | - | - |
| 1777480774 | 20° C | 88% | 1009.4 hPa | 1.78 mm | - | - | - |
* Rain since midnight (hover to see other rain measurements)
** Current wind speed in m/s (hover to see current wind gust speed)